Atwell, New York
Current Conditions -  °F | °C
As of 7:53 PM on Wednesday 17 Dec 2014 (Local Time) from KRME Reporting Station
Light Snow Light Snow  
Wind Chill: 26°   Ceiling: 600
Heat Index: 33°   Visibility: 5mi
Dew Point: 32°   Wind: 8mph
Humidity: 96%   Direction: 270°W
Pressure: 29.89"   Gusts: NA
Location:  43.501°N, 75.1602°W
Report Text: KRME 180053Z 27007KT 5SM -SN BR OVC006 01/00 A2989 RMK AO2 CIG 005V008 SLP125 P0000 T00060000
Loading
Personal Weather Stations






























Interactive Weather Map New forecast layout! Learn more

10-Day Weather Forecast

Advertisements
Track Severe Weather on mobile